sensor_id;sensor_type;location;lat;lon;timestamp;pressure;altitude;pressure_sealevel;temperature;humidity
70323;BME280;57735;56.264;43.898;2022-09-09T00:02:22;101003.41;;;6.96;75.58
70323;BME280;57735;56.264;43.898;2022-09-09T00:05:07;100999.69;;;6.99;75.53
70323;BME280;57735;56.264;43.898;2022-09-09T00:07:47;101003.50;;;6.95;75.54
70323;BME280;57735;56.264;43.898;2022-09-09T00:15:36;101007.09;;;6.83;75.42
70323;BME280;57735;56.264;43.898;2022-09-09T00:18:27;101016.44;;;6.76;75.32
70323;BME280;57735;56.264;43.898;2022-09-09T00:21:11;101017.63;;;6.72;75.49
70323;BME280;57735;56.264;43.898;2022-09-09T00:23:53;101028.56;;;6.67;75.77
70323;BME280;57735;56.264;43.898;2022-09-09T00:26:46;101028.91;;;6.62;75.79
70323;BME280;57735;56.264;43.898;2022-09-09T00:32:27;101023.31;;;6.54;75.95
70323;BME280;57735;56.264;43.898;2022-09-09T00:35:03;101030.53;;;6.52;76.32
70323;BME280;57735;56.264;43.898;2022-09-09T00:37:35;101027.06;;;6.52;76.14
70323;BME280;57735;56.264;43.898;2022-09-09T00:40:21;101038.50;;;6.52;75.77
70323;BME280;57735;56.264;43.898;2022-09-09T00:43:21;101032.56;;;6.49;75.85
70323;BME280;57735;56.264;43.898;2022-09-09T00:46:17;101034.38;;;6.48;76.14
70323;BME280;57735;56.264;43.898;2022-09-09T00:49:32;101035.31;;;6.47;76.17
70323;BME280;57735;56.264;43.898;2022-09-09T00:52:22;101040.63;;;6.47;76.07
70323;BME280;57735;56.264;43.898;2022-09-09T00:58:08;101043.38;;;6.46;76.15
70323;BME280;57735;56.264;43.898;2022-09-09T01:00:44;101046.88;;;6.46;76.13
70323;BME280;57735;56.264;43.898;2022-09-09T01:06:13;101053.97;;;6.46;75.82
70323;BME280;57735;56.264;43.898;2022-09-09T01:09:04;101046.13;;;6.44;76.05
70323;BME280;57735;56.264;43.898;2022-09-09T01:17:56;101060.44;;;6.42;76.11
70323;BME280;57735;56.264;43.898;2022-09-09T01:26:41;101072.63;;;6.44;75.99
70323;BME280;57735;56.264;43.898;2022-09-09T01:29:15;101067.22;;;6.46;75.85
70323;BME280;57735;56.264;43.898;2022-09-09T01:34:32;101072.72;;;6.43;75.80
70323;BME280;57735;56.264;43.898;2022-09-09T01:39:42;101077.28;;;6.41;76.02
70323;BME280;57735;56.264;43.898;2022-09-09T01:42:16;101063.94;;;6.42;75.93
70323;BME280;57735;56.264;43.898;2022-09-09T01:44:46;101067.75;;;6.38;75.96
70323;BME280;57735;56.264;43.898;2022-09-09T01:47:17;101072.34;;;6.36;75.97
70323;BME280;57735;56.264;43.898;2022-09-09T01:49:48;101086.63;;;6.34;76.25
70323;BME280;57735;56.264;43.898;2022-09-09T01:52:19;101083.13;;;6.33;76.13
70323;BME280;57735;56.264;43.898;2022-09-09T01:54:50;101078.78;;;6.32;76.36
70323;BME280;57735;56.264;43.898;2022-09-09T01:57:33;101088.66;;;6.30;76.17
70323;BME280;57735;56.264;43.898;2022-09-09T02:00:11;101095.00;;;6.27;76.14
70323;BME280;57735;56.264;43.898;2022-09-09T02:02:56;101094.16;;;6.27;76.37
70323;BME280;57735;56.264;43.898;2022-09-09T02:05:40;101094.16;;;6.27;76.38
70323;BME280;57735;56.264;43.898;2022-09-09T02:08:19;101095.09;;;6.26;76.55
70323;BME280;57735;56.264;43.898;2022-09-09T02:10:58;101095.09;;;6.26;76.57
70323;BME280;57735;56.264;43.898;2022-09-09T02:13:32;101105.28;;;6.19;76.35
70323;BME280;57735;56.264;43.898;2022-09-09T02:16:09;101099.16;;;6.19;76.66
70323;BME280;57735;56.264;43.898;2022-09-09T02:19:10;101105.41;;;6.18;76.62
70323;BME280;57735;56.264;43.898;2022-09-09T02:21:45;101101.06;;;6.17;76.60
70323;BME280;57735;56.264;43.898;2022-09-09T02:24:17;101109.84;;;6.17;76.92
70323;BME280;57735;56.264;43.898;2022-09-09T02:26:51;101111.00;;;6.13;76.60
70323;BME280;57735;56.264;43.898;2022-09-09T02:29:27;101114.41;;;6.15;76.61
70323;BME280;57735;56.264;43.898;2022-09-09T02:32:03;101119.91;;;6.12;76.36
70323;BME280;57735;56.264;43.898;2022-09-09T02:34:40;101124.44;;;6.10;76.47
70323;BME280;57735;56.264;43.898;2022-09-09T02:37:15;101118.22;;;6.11;76.32
70323;BME280;57735;56.264;43.898;2022-09-09T02:39:48;101121.59;;;6.13;76.62
70323;BME280;57735;56.264;43.898;2022-09-09T02:42:19;101133.03;;;6.14;76.51
70323;BME280;57735;56.264;43.898;2022-09-09T02:44:50;101128.69;;;6.13;76.31
70323;BME280;57735;56.264;43.898;2022-09-09T02:47:37;101138.31;;;6.14;76.17
70323;BME280;57735;56.264;43.898;2022-09-09T02:50:19;101143.63;;;6.14;75.73
70323;BME280;57735;56.264;43.898;2022-09-09T02:55:49;101152.50;;;6.13;75.63
70323;BME280;57735;56.264;43.898;2022-09-09T02:58:25;101150.91;;;6.10;75.71
70323;BME280;57735;56.264;43.898;2022-09-09T03:00:57;101151.88;;;6.09;75.74
70323;BME280;57735;56.264;43.898;2022-09-09T03:03:28;101156.84;;;6.14;75.77
70323;BME280;57735;56.264;43.898;2022-09-09T03:05:59;101153.34;;;6.13;75.57
70323;BME280;57735;56.264;43.898;2022-09-09T03:08:32;101158.13;;;6.08;75.21
70323;BME280;57735;56.264;43.898;2022-09-09T03:11:04;101159.28;;;6.04;75.38
70323;BME280;57735;56.264;43.898;2022-09-09T03:13:39;101157.28;;;6.08;75.39
70323;BME280;57735;56.264;43.898;2022-09-09T03:16:12;101165.94;;;6.10;75.33
70323;BME280;57735;56.264;43.898;2022-09-09T03:18:46;101164.16;;;6.10;75.20
70323;BME280;57735;56.264;43.898;2022-09-09T03:21:19;101172.53;;;6.17;75.28
70323;BME280;57735;56.264;43.898;2022-09-09T03:23:50;101180.25;;;6.20;75.20
70323;BME280;57735;56.264;43.898;2022-09-09T03:26:21;101174.72;;;6.23;75.12
70323;BME280;57735;56.264;43.898;2022-09-09T03:28:52;101177.19;;;6.26;74.72
70323;BME280;57735;56.264;43.898;2022-09-09T03:31:23;101192.97;;;6.27;74.65
70323;BME280;57735;56.264;43.898;2022-09-09T03:33:54;101184.69;;;6.32;74.18
70323;BME280;57735;56.264;43.898;2022-09-09T03:36:26;101188.69;;;6.38;74.33
70323;BME280;57735;56.264;43.898;2022-09-09T03:38:57;101191.03;;;6.42;74.29
70323;BME280;57735;56.264;43.898;2022-09-09T03:41:29;101187.66;;;6.40;74.13
70323;BME280;57735;56.264;43.898;2022-09-09T03:44:02;101195.38;;;6.43;74.25
70323;BME280;57735;56.264;43.898;2022-09-09T03:46:33;101193.59;;;6.44;74.10
70323;BME280;57735;56.264;43.898;2022-09-09T03:49:04;101201.00;;;6.39;73.72
70323;BME280;57735;56.264;43.898;2022-09-09T03:51:35;101202.94;;;6.37;73.99
70323;BME280;57735;56.264;43.898;2022-09-09T03:54:07;101210.44;;;6.30;73.76
70323;BME280;57735;56.264;43.898;2022-09-09T03:56:40;101210.09;;;6.22;74.03
70323;BME280;57735;56.264;43.898;2022-09-09T03:59:12;101206.19;;;6.15;74.00
70323;BME280;57735;56.264;43.898;2022-09-09T04:01:44;101211.91;;;6.09;74.18
70323;BME280;57735;56.264;43.898;2022-09-09T04:04:15;101216.44;;;6.07;74.04
70323;BME280;57735;56.264;43.898;2022-09-09T04:06:46;101212.94;;;6.06;74.04
70323;BME280;57735;56.264;43.898;2022-09-09T04:09:19;101210.00;;;6.11;74.08
70323;BME280;57735;56.264;43.898;2022-09-09T04:11:53;101213.28;;;6.14;73.92
70323;BME280;57735;56.264;43.898;2022-09-09T04:14:24;101220.19;;;6.17;73.82
70323;BME280;57735;56.264;43.898;2022-09-09T04:16:59;101224.63;;;6.16;73.37
70323;BME280;57735;56.264;43.898;2022-09-09T04:19:30;101226.31;;;6.17;73.16
70323;BME280;57735;56.264;43.898;2022-09-09T04:22:01;101227.78;;;6.21;73.51
70323;BME280;57735;56.264;43.898;2022-09-09T04:24:32;101235.31;;;6.27;73.38
70323;BME280;57735;56.264;43.898;2022-09-09T04:27:03;101237.13;;;6.27;72.49
70323;BME280;57735;56.264;43.898;2022-09-09T04:29:37;101240.50;;;6.29;72.52
70323;BME280;57735;56.264;43.898;2022-09-09T04:32:08;101240.19;;;6.34;72.90
70323;BME280;57735;56.264;43.898;2022-09-09T04:34:39;101243.34;;;6.39;72.55
70323;BME280;57735;56.264;43.898;2022-09-09T04:37:11;101252.16;;;6.39;71.98
70323;BME280;57735;56.264;43.898;2022-09-09T04:39:45;101249.94;;;6.33;71.88
70323;BME280;57735;56.264;43.898;2022-09-09T04:42:15;101256.94;;;6.34;71.75
70323;BME280;57735;56.264;43.898;2022-09-09T04:44:48;101261.06;;;6.38;71.61
70323;BME280;57735;56.264;43.898;2022-09-09T04:47:18;101251.00;;;6.43;71.57
70323;BME280;57735;56.264;43.898;2022-09-09T04:49:49;101254.19;;;6.48;71.49
70323;BME280;57735;56.264;43.898;2022-09-09T04:52:20;101251.00;;;6.56;71.28
70323;BME280;57735;56.264;43.898;2022-09-09T04:54:51;101255.78;;;6.63;71.01
70323;BME280;57735;56.264;43.898;2022-09-09T04:57:24;101261.38;;;6.72;71.02
70323;BME280;57735;56.264;43.898;2022-09-09T04:59:55;101259.25;;;6.77;70.66
70323;BME280;57735;56.264;43.898;2022-09-09T05:02:26;101260.31;;;6.87;70.27
70323;BME280;57735;56.264;43.898;2022-09-09T05:04:57;101258.59;;;6.98;70.37
70323;BME280;57735;56.264;43.898;2022-09-09T05:07:28;101267.47;;;7.10;69.78
70323;BME280;57735;56.264;43.898;2022-09-09T05:09:59;101263.66;;;7.14;69.11
70323;BME280;57735;56.264;43.898;2022-09-09T05:12:30;101263.22;;;7.20;68.33
70323;BME280;57735;56.264;43.898;2022-09-09T05:15:01;101266.34;;;7.25;68.40
70323;BME280;57735;56.264;43.898;2022-09-09T05:17:34;101259.16;;;7.27;67.74
70323;BME280;57735;56.264;43.898;2022-09-09T05:20:05;101271.97;;;7.33;67.86
70323;BME280;57735;56.264;43.898;2022-09-09T05:22:36;101265.47;;;7.38;67.74
70323;BME280;57735;56.264;43.898;2022-09-09T05:25:07;101270.34;;;7.44;67.21
70323;BME280;57735;56.264;43.898;2022-09-09T05:27:38;101267.34;;;7.48;66.75
70323;BME280;57735;56.264;43.898;2022-09-09T05:30:09;101276.78;;;7.52;67.12
70323;BME280;57735;56.264;43.898;2022-09-09T05:32:40;101277.91;;;7.61;66.67
70323;BME280;57735;56.264;43.898;2022-09-09T05:35:11;101279.16;;;7.68;66.22
70323;BME280;57735;56.264;43.898;2022-09-09T05:37:43;101280.16;;;7.78;65.77
70323;BME280;57735;56.264;43.898;2022-09-09T05:40:14;101282.50;;;7.83;65.34
70323;BME280;57735;56.264;43.898;2022-09-09T05:42:45;101280.31;;;7.88;65.42
70323;BME280;57735;56.264;43.898;2022-09-09T05:45:16;101278.19;;;7.93;65.98
70323;BME280;57735;56.264;43.898;2022-09-09T05:47:51;101284.00;;;7.98;65.76
70323;BME280;57735;56.264;43.898;2022-09-09T05:50:29;101278.09;;;8.05;64.16
70323;BME280;57735;56.264;43.898;2022-09-09T05:52:59;101284.03;;;8.09;64.12
70323;BME280;57735;56.264;43.898;2022-09-09T05:55:30;101282.22;;;8.10;63.88
70323;BME280;57735;56.264;43.898;2022-09-09T05:58:01;101287.19;;;8.14;63.79
70323;BME280;57735;56.264;43.898;2022-09-09T06:00:33;101294.34;;;8.25;64.38
70323;BME280;57735;56.264;43.898;2022-09-09T06:03:04;101286.47;;;8.36;64.03
70323;BME280;57735;56.264;43.898;2022-09-09T06:05:34;101292.28;;;8.52;63.46
70323;BME280;57735;56.264;43.898;2022-09-09T06:08:05;101295.41;;;8.46;62.71
70323;BME280;57735;56.264;43.898;2022-09-09T06:10:38;101295.06;;;8.51;62.50
70323;BME280;57735;56.264;43.898;2022-09-09T06:13:09;101296.25;;;8.58;62.43
70323;BME280;57735;56.264;43.898;2022-09-09T06:15:49;101285.78;;;8.67;62.10
70323;BME280;57735;56.264;43.898;2022-09-09T06:18:42;101299.81;;;8.69;62.20
70323;BME280;57735;56.264;43.898;2022-09-09T06:21:18;101293.75;;;8.79;60.96
70323;BME280;57735;56.264;43.898;2022-09-09T06:23:52;101302.47;;;8.81;60.18
70323;BME280;57735;56.264;43.898;2022-09-09T06:26:28;101304.88;;;8.84;59.38
70323;BME280;57735;56.264;43.898;2022-09-09T06:29:01;101305.13;;;8.92;59.01
70323;BME280;57735;56.264;43.898;2022-09-09T06:31:35;101308.38;;;9.06;58.68
70323;BME280;57735;56.264;43.898;2022-09-09T06:34:10;101315.13;;;9.22;58.57
70323;BME280;57735;56.264;43.898;2022-09-09T06:36:44;101317.94;;;9.31;57.87
70323;BME280;57735;56.264;43.898;2022-09-09T06:39:16;101314.16;;;9.45;57.77
70323;BME280;57735;56.264;43.898;2022-09-09T06:41:47;101321.28;;;9.67;57.73
70323;BME280;57735;56.264;43.898;2022-09-09T06:44:19;101308.28;;;9.73;55.96
70323;BME280;57735;56.264;43.898;2022-09-09T06:46:50;101313.41;;;9.97;56.13
70323;BME280;57735;56.264;43.898;2022-09-09T06:49:21;101310.81;;;10.18;55.60
70323;BME280;57735;56.264;43.898;2022-09-09T06:51:52;101319.81;;;10.38;54.65
70323;BME280;57735;56.264;43.898;2022-09-09T06:54:24;101331.19;;;10.19;53.03
70323;BME280;57735;56.264;43.898;2022-09-09T06:56:55;101320.63;;;10.06;54.60
70323;BME280;57735;56.264;43.898;2022-09-09T06:59:29;101329.69;;;10.15;52.90
70323;BME280;57735;56.264;43.898;2022-09-09T07:02:01;101312.25;;;10.43;54.58
70323;BME280;57735;56.264;43.898;2022-09-09T07:04:35;101323.13;;;10.72;52.72
70323;BME280;57735;56.264;43.898;2022-09-09T07:07:07;101324.91;;;10.92;52.81
70323;BME280;57735;56.264;43.898;2022-09-09T07:09:40;101330.41;;;10.70;51.18
70323;BME280;57735;56.264;43.898;2022-09-09T07:12:12;101333.22;;;10.47;50.61
70323;BME280;57735;56.264;43.898;2022-09-09T07:14:43;101330.91;;;10.43;51.04
70323;BME280;57735;56.264;43.898;2022-09-09T07:17:14;101334.97;;;10.37;50.83
70323;BME280;57735;56.264;43.898;2022-09-09T07:19:45;101332.22;;;10.48;50.85
70323;BME280;57735;56.264;43.898;2022-09-09T07:22:15;101335.25;;;10.55;50.36
70323;BME280;57735;56.264;43.898;2022-09-09T07:24:46;101335.41;;;10.63;50.29
70323;BME280;57735;56.264;43.898;2022-09-09T07:27:17;101347.25;;;10.70;50.56
70323;BME280;57735;56.264;43.898;2022-09-09T07:29:51;101336.13;;;10.86;49.74
70323;BME280;57735;56.264;43.898;2022-09-09T07:32:24;101340.34;;;10.89;49.17
70323;BME280;57735;56.264;43.898;2022-09-09T07:34:58;101345.41;;;10.92;49.63
70323;BME280;57735;56.264;43.898;2022-09-09T07:37:29;101347.44;;;10.78;46.42
70323;BME280;57735;56.264;43.898;2022-09-09T07:40:00;101353.56;;;10.69;46.82
70323;BME280;57735;56.264;43.898;2022-09-09T07:42:34;101351.47;;;10.73;46.99
70323;BME280;57735;56.264;43.898;2022-09-09T07:45:05;101356.25;;;10.69;46.85
70323;BME280;57735;56.264;43.898;2022-09-09T07:47:38;101350.91;;;10.69;46.50
70323;BME280;57735;56.264;43.898;2022-09-09T07:50:09;101363.25;;;10.70;47.24
70323;BME280;57735;56.264;43.898;2022-09-09T07:52:40;101353.03;;;10.75;47.47
70323;BME280;57735;56.264;43.898;2022-09-09T07:55:11;101358.09;;;10.78;47.54
70323;BME280;57735;56.264;43.898;2022-09-09T07:57:42;101364.41;;;10.77;49.20
70323;BME280;57735;56.264;43.898;2022-09-09T08:00:13;101356.19;;;10.90;49.70
70323;BME280;57735;56.264;43.898;2022-09-09T08:02:45;101360.19;;;10.96;48.95
70323;BME280;57735;56.264;43.898;2022-09-09T08:05:16;101367.19;;;10.97;48.36
70323;BME280;57735;56.264;43.898;2022-09-09T08:07:48;101358.22;;;10.98;48.11
70323;BME280;57735;56.264;43.898;2022-09-09T08:10:19;101369.63;;;11.00;48.19
70323;BME280;57735;56.264;43.898;2022-09-09T08:12:51;101371.03;;;11.04;47.86
70323;BME280;57735;56.264;43.898;2022-09-09T08:15:31;101372.16;;;11.01;47.32
70323;BME280;57735;56.264;43.898;2022-09-09T08:18:05;101374.50;;;10.95;47.53
70323;BME280;57735;56.264;43.898;2022-09-09T08:20:36;101375.84;;;11.10;48.00
70323;BME280;57735;56.264;43.898;2022-09-09T08:23:08;101379.47;;;11.09;47.42
70323;BME280;57735;56.264;43.898;2022-09-09T08:25:38;101380.06;;;11.12;47.42
70323;BME280;57735;56.264;43.898;2022-09-09T08:28:10;101384.44;;;11.13;46.42
70323;BME280;57735;56.264;43.898;2022-09-09T08:30:40;101379.28;;;11.22;46.84
70323;BME280;57735;56.264;43.898;2022-09-09T08:33:11;101381.53;;;11.26;46.97
70323;BME280;57735;56.264;43.898;2022-09-09T08:35:49;101387.19;;;11.33;46.61
70323;BME280;57735;56.264;43.898;2022-09-09T08:38:20;101388.31;;;11.40;46.94
70323;BME280;57735;56.264;43.898;2022-09-09T08:40:53;101389.00;;;11.63;48.12
70323;BME280;57735;56.264;43.898;2022-09-09T08:43:31;101372.06;;;11.83;45.86
70323;BME280;57735;56.264;43.898;2022-09-09T08:46:13;101382.53;;;11.65;46.03
70323;BME280;57735;56.264;43.898;2022-09-09T08:49:05;101395.16;;;11.53;44.65
70323;BME280;57735;56.264;43.898;2022-09-09T08:51:37;101386.13;;;11.45;45.08
70323;BME280;57735;56.264;43.898;2022-09-09T08:54:08;101386.81;;;11.47;45.06
70323;BME280;57735;56.264;43.898;2022-09-09T08:56:40;101385.44;;;11.52;44.90
70323;BME280;57735;56.264;43.898;2022-09-09T08:59:16;101391.91;;;11.90;44.64
70323;BME280;57735;56.264;43.898;2022-09-09T09:01:52;101391.81;;;12.01;44.13
70323;BME280;57735;56.264;43.898;2022-09-09T09:12:57;101408.28;;;11.36;44.92
70323;BME280;57735;56.264;43.898;2022-09-09T09:15:36;101397.47;;;11.37;45.18
70323;BME280;57735;56.264;43.898;2022-09-09T09:18:11;101415.16;;;11.69;44.63
70323;BME280;57735;56.264;43.898;2022-09-09T09:21:05;101414.69;;;11.94;44.05
70323;BME280;57735;56.264;43.898;2022-09-09T09:24:01;101414.69;;;11.94;43.76
70323;BME280;57735;56.264;43.898;2022-09-09T09:26:36;101402.31;;;11.93;44.15
70323;BME280;57735;56.264;43.898;2022-09-09T09:31:51;101399.53;;;12.14;45.19
70323;BME280;57735;56.264;43.898;2022-09-09T09:34:23;101397.88;;;12.42;44.47
70323;BME280;57735;56.264;43.898;2022-09-09T09:36:59;101401.69;;;12.20;43.63
70323;BME280;57735;56.264;43.898;2022-09-09T09:39:33;101405.88;;;12.03;43.28
70323;BME280;57735;56.264;43.898;2022-09-09T09:42:11;101402.59;;;11.90;43.22
70323;BME280;57735;56.264;43.898;2022-09-09T09:44:46;101407.13;;;11.90;43.81
70323;BME280;57735;56.264;43.898;2022-09-09T09:47:19;101402.75;;;11.88;43.96
70323;BME280;57735;56.264;43.898;2022-09-09T09:50:00;101403.59;;;11.89;44.58
70323;BME280;57735;56.264;43.898;2022-09-09T09:52:35;101405.16;;;12.01;43.88
70323;BME280;57735;56.264;43.898;2022-09-09T09:55:13;101407.44;;;12.06;43.70
70323;BME280;57735;56.264;43.898;2022-09-09T09:57:44;101412.16;;;11.93;44.33
70323;BME280;57735;56.264;43.898;2022-09-09T10:00:20;101407.44;;;11.75;44.80
70323;BME280;57735;56.264;43.898;2022-09-09T10:02:51;101410.41;;;11.72;45.92
70323;BME280;57735;56.264;43.898;2022-09-09T10:05:28;101412.03;;;11.64;45.25
70323;BME280;57735;56.264;43.898;2022-09-09T10:08:12;101418.81;;;11.68;45.05
70323;BME280;57735;56.264;43.898;2022-09-09T10:13:48;101424.66;;;11.52;46.14
70323;BME280;57735;56.264;43.898;2022-09-09T10:16:44;101424.59;;;11.42;46.78
70323;BME280;57735;56.264;43.898;2022-09-09T10:19:41;101430.97;;;11.21;47.34
70323;BME280;57735;56.264;43.898;2022-09-09T10:22:27;101418.63;;;11.29;47.14
70323;BME280;57735;56.264;43.898;2022-09-09T10:30:50;101425.88;;;11.38;46.26
70323;BME280;57735;56.264;43.898;2022-09-09T10:33:54;101428.84;;;11.45;47.26
70323;BME280;57735;56.264;43.898;2022-09-09T10:36:29;101427.47;;;11.50;46.96
70323;BME280;57735;56.264;43.898;2022-09-09T10:39:22;101437.03;;;11.53;46.64
70323;BME280;57735;56.264;43.898;2022-09-09T10:42:16;101433.94;;;11.58;47.29
70323;BME280;57735;56.264;43.898;2022-09-09T10:47:29;101430.63;;;11.35;47.88
70323;BME280;57735;56.264;43.898;2022-09-09T10:50:20;101432.38;;;11.25;48.87
70323;BME280;57735;56.264;43.898;2022-09-09T10:53:18;101431.88;;;11.10;49.71
70323;BME280;57735;56.264;43.898;2022-09-09T10:56:08;101443.25;;;10.91;49.80
70323;BME280;57735;56.264;43.898;2022-09-09T10:58:55;101432.28;;;11.05;49.86
70323;BME280;57735;56.264;43.898;2022-09-09T11:01:34;101435.25;;;11.33;49.96
70323;BME280;57735;56.264;43.898;2022-09-09T11:04:17;101430.22;;;11.70;49.14
70323;BME280;57735;56.264;43.898;2022-09-09T11:06:54;101436.91;;;11.85;49.11
70323;BME280;57735;56.264;43.898;2022-09-09T11:09:29;101423.97;;;11.90;48.39
70323;BME280;57735;56.264;43.898;2022-09-09T11:12:02;101426.78;;;11.88;48.42
70323;BME280;57735;56.264;43.898;2022-09-09T11:14:44;101432.53;;;11.84;47.47
70323;BME280;57735;56.264;43.898;2022-09-09T11:17:23;101433.09;;;11.57;48.42
70323;BME280;57735;56.264;43.898;2022-09-09T11:19:55;101427.13;;;11.44;48.81
70323;BME280;57735;56.264;43.898;2022-09-09T11:22:33;101436.34;;;11.30;48.90
70323;BME280;57735;56.264;43.898;2022-09-09T11:25:18;101435.59;;;11.18;49.37
70323;BME280;57735;56.264;43.898;2022-09-09T11:42:15;101434.63;;;10.99;50.57
70323;BME280;57735;56.264;43.898;2022-09-09T11:44:47;101440.41;;;11.04;50.62
70323;BME280;57735;56.264;43.898;2022-09-09T11:47:29;101443.53;;;11.09;50.15
70323;BME280;57735;56.264;43.898;2022-09-09T11:52:46;101434.19;;;11.24;50.14
70323;BME280;57735;56.264;43.898;2022-09-09T11:55:34;101428.56;;;11.48;49.80
70323;BME280;57735;56.264;43.898;2022-09-09T12:00:42;101434.00;;;12.07;48.39
70323;BME280;57735;56.264;43.898;2022-09-09T12:03:39;101436.81;;;12.06;47.88
70323;BME280;57735;56.264;43.898;2022-09-09T12:06:26;101431.97;;;11.90;48.42
70323;BME280;57735;56.264;43.898;2022-09-09T12:11:48;101436.09;;;11.73;49.07
70323;BME280;57735;56.264;43.898;2022-09-09T12:14:35;101436.47;;;11.59;48.91
70323;BME280;57735;56.264;43.898;2022-09-09T12:19:47;101438.00;;;11.52;49.13
70323;BME280;57735;56.264;43.898;2022-09-09T12:22:34;101445.78;;;11.65;48.53
70323;BME280;57735;56.264;43.898;2022-09-09T12:25:35;101441.97;;;11.88;47.52
70323;BME280;57735;56.264;43.898;2022-09-09T12:31:05;101438.34;;;12.08;46.92
70323;BME280;57735;56.264;43.898;2022-09-09T12:33:40;101440.47;;;12.05;47.88
70323;BME280;57735;56.264;43.898;2022-09-09T12:36:18;101444.22;;;11.83;49.07
70323;BME280;57735;56.264;43.898;2022-09-09T12:38:53;101447.13;;;11.49;52.29
70323;BME280;57735;56.264;43.898;2022-09-09T12:41:27;101455.16;;;11.29;55.12
70323;BME280;57735;56.264;43.898;2022-09-09T12:44:06;101467.22;;;11.02;56.93
70323;BME280;57735;56.264;43.898;2022-09-09T12:46:45;101458.97;;;10.73;58.12
70323;BME280;57735;56.264;43.898;2022-09-09T12:49:37;101463.88;;;10.68;58.45
70323;BME280;57735;56.264;43.898;2022-09-09T12:54:46;101456.94;;;10.98;57.87
70323;BME280;57735;56.264;43.898;2022-09-09T12:57:17;101457.84;;;11.08;57.65
70323;BME280;57735;56.264;43.898;2022-09-09T12:59:51;101452.25;;;11.11;57.89
70323;BME280;57735;56.264;43.898;2022-09-09T13:02:26;101441.56;;;11.11;57.89
70323;BME280;57735;56.264;43.898;2022-09-09T13:05:34;101439.50;;;10.94;54.85
70323;BME280;57735;56.264;43.898;2022-09-09T13:08:08;101446.22;;;10.88;56.44
70323;BME280;57735;56.264;43.898;2022-09-09T13:10:47;101439.50;;;10.94;55.78
70323;BME280;57735;56.264;43.898;2022-09-09T13:13:25;101443.53;;;11.09;55.57
70323;BME280;57735;56.264;43.898;2022-09-09T13:15:58;101440.81;;;11.20;54.71
70323;BME280;57735;56.264;43.898;2022-09-09T13:18:39;101437.66;;;11.15;54.27
70323;BME280;57735;56.264;43.898;2022-09-09T13:21:11;101439.28;;;11.06;55.16
70323;BME280;57735;56.264;43.898;2022-09-09T13:23:49;101450.28;;;10.92;55.38
70323;BME280;57735;56.264;43.898;2022-09-09T13:26:26;101443.78;;;10.85;55.67
70323;BME280;57735;56.264;43.898;2022-09-09T13:29:18;101443.31;;;10.80;55.02
70323;BME280;57735;56.264;43.898;2022-09-09T13:31:52;101443.94;;;10.83;55.34
70323;BME280;57735;56.264;43.898;2022-09-09T13:34:31;101453.50;;;10.86;54.60
70323;BME280;57735;56.264;43.898;2022-09-09T13:37:05;101453.38;;;10.88;53.69
70323;BME280;57735;56.264;43.898;2022-09-09T13:39:37;101439.91;;;10.89;53.96
70323;BME280;57735;56.264;43.898;2022-09-09T13:42:24;101439.50;;;10.94;52.61
70323;BME280;57735;56.264;43.898;2022-09-09T13:44:56;101434.63;;;10.99;52.38
70323;BME280;57735;56.264;43.898;2022-09-09T13:47:35;101433.13;;;11.06;52.23
70323;BME280;57735;56.264;43.898;2022-09-09T13:50:29;101434.34;;;11.23;51.85
70323;BME280;57735;56.264;43.898;2022-09-09T13:53:01;101423.19;;;11.38;51.84
70323;BME280;57735;56.264;43.898;2022-09-09T13:55:32;101432.94;;;11.49;51.27
70323;BME280;57735;56.264;43.898;2022-09-09T13:58:04;101433.94;;;11.58;51.00
70323;BME280;57735;56.264;43.898;2022-09-09T14:00:35;101427.34;;;11.52;50.14
70323;BME280;57735;56.264;43.898;2022-09-09T14:03:14;101428.25;;;11.41;50.32
70323;BME280;57735;56.264;43.898;2022-09-09T14:05:45;101432.25;;;11.26;50.57
70323;BME280;57735;56.264;43.898;2022-09-09T14:08:23;101436.22;;;11.11;50.87
70323;BME280;57735;56.264;43.898;2022-09-09T14:10:54;101438.00;;;11.01;51.46
70323;BME280;57735;56.264;43.898;2022-09-09T14:13:26;101427.13;;;10.93;51.87
70323;BME280;57735;56.264;43.898;2022-09-09T14:15:57;101436.09;;;10.92;52.46
70323;BME280;57735;56.264;43.898;2022-09-09T14:18:30;101453.53;;;10.96;52.65
70323;BME280;57735;56.264;43.898;2022-09-09T14:21:01;101442.03;;;10.95;53.12
70323;BME280;57735;56.264;43.898;2022-09-09T14:23:33;101432.22;;;10.96;52.98
70323;BME280;57735;56.264;43.898;2022-09-09T14:26:05;101439.09;;;10.98;54.01
70323;BME280;57735;56.264;43.898;2022-09-09T14:28:36;101437.16;;;11.00;53.88
70323;BME280;57735;56.264;43.898;2022-09-09T14:31:07;101444.44;;;10.98;53.97
70323;BME280;57735;56.264;43.898;2022-09-09T14:33:40;101442.16;;;10.94;53.13
70323;BME280;57735;56.264;43.898;2022-09-09T14:36:11;101443.97;;;10.93;53.24
70323;BME280;57735;56.264;43.898;2022-09-09T14:38:45;101450.41;;;10.91;53.26
70323;BME280;57735;56.264;43.898;2022-09-09T14:41:18;101448.47;;;10.93;53.27
70323;BME280;57735;56.264;43.898;2022-09-09T14:43:50;101445.38;;;10.88;52.41
70323;BME280;57735;56.264;43.898;2022-09-09T14:46:22;101439.19;;;10.87;52.49
70323;BME280;57735;56.264;43.898;2022-09-09T14:48:53;101455.06;;;10.89;52.33
70323;BME280;57735;56.264;43.898;2022-09-09T14:51:25;101447.91;;;10.89;52.34
70323;BME280;57735;56.264;43.898;2022-09-09T14:54:01;101449.25;;;10.83;51.76
70323;BME280;57735;56.264;43.898;2022-09-09T14:56:34;101447.22;;;10.76;52.53
70323;BME280;57735;56.264;43.898;2022-09-09T14:59:05;101455.16;;;10.66;53.37